Fowler, Ohio
Current Conditions -  °F | °C
As of 8:51 PM on Friday 21 Nov 2014 (Local Time) from KYNG Reporting Station
Clear Clear  
Wind Chill: 10°   Ceiling: Unl
Heat Index: 18°   Visibility: 10mi
Dew Point:   Wind: 6mph
Humidity: 60%   Direction: 180°S
Pressure: 30.43"   Gusts: NA
Location:  41.31°N, 80.66°W
Report Text: KYNG 220151Z 18005KT 10SM CLR M08/M14 A3043 RMK AO2 SLP324 T10781144
Loading
Personal Weather Stations






























Interactive Weather Map New forecast layout! Learn more

10-Day Weather Forecast

Advertisements
Track Severe Weather on mobile